Flight Track Log - Related Links

Times and Time Zones

All times are in EST time to prevent confusion due to time zone crossing. See the N330XX flight status page for this flight to view local times or setup timezone preferences in your user account.

Time Position Orientation Groundspeed Altitude Reporting Facility
EST Latitude Longitude Course Direction KTS MPH feet Rate Location/Type
Tue 06:06:06 PM 32.8333 -97.3667 360° North 152 175 1,300  Level Dallas / Fort Worth TRACON
Tue 06:06:36 PM 32.8667 -97.3667 360° North 168 193 2,300 2,267 Climbing Dallas / Fort Worth TRACON
Tue 06:07:36 PM 32.9167 -97.3667 360° North 195 224 4,700 2,400 Climbing Dallas / Fort Worth TRACON
Tue 06:08:36 PM 32.9000 -97.4000 239° Southwest 227 261 7,100 2,505 Climbing Dallas / Fort Worth TRACON
Tue 06:09:07 PM 32.8717 -97.4053 189° South 229 264 8,500 2,194 Climbing Fort Worth Center
Tue 06:10:09 PM 32.8064 -97.3919 170° South 245 282 10,500 1,839 Climbing Fort Worth Center
Tue 06:11:11 PM 32.7950 -97.3164 100° East 245 282 12,300 1,210 Climbing Fort Worth Center
Tue 06:12:13 PM 32.7928 -97.2200 92° East 284 327 13,000 629 Climbing Fort Worth Center
Tue 06:13:15 PM 32.7892 -97.1106 92° East 333 383 13,600 1,113 Climbing Fort Worth Center
Tue 06:14:17 PM 32.7850 -96.9892 92° East 342 394 15,300 1,790 Climbing Fort Worth Center
Tue 06:15:19 PM 32.7814 -96.8814 92° East 327 376 17,300 1,872 Climbing Fort Worth Center
Tue 06:16:22 PM 32.7769 -96.7689 93° East 317 365 19,200 1,824 Climbing Fort Worth Center
Tue 06:17:24 PM 32.7733 -96.6667 92° East 312 359 21,100 1,887 Climbing Fort Worth Center
Tue 06:18:26 PM 32.7694 -96.5592 92° East 306 352 23,100 1,645 Climbing Fort Worth Center
Tue 06:19:28 PM 32.7667 -96.4619 92° East 308 354 24,500 1,306 Climbing Fort Worth Center
Tue 06:20:30 PM 32.7625 -96.3567 93° East 317 365 25,800 1,258 Climbing Fort Worth Center
Tue 06:21:32 PM 32.7494 -96.2483 98° East 331 381 27,100 1,258 Climbing Fort Worth Center
Tue 06:22:34 PM 32.7425 -96.1383 94° East 334 384 28,400 1,306 Climbing Fort Worth Center
Tue 06:23:36 PM 32.7406 -96.0044 91° East 337 388 29,800 1,113 Climbing Fort Worth Center
Tue 06:24:38 PM 32.7381 -95.8914 91° East 341 392 30,700 871 Climbing Fort Worth Center
Tue 06:25:40 PM 32.7353 -95.7750 92° East 351 404 31,600 912 Climbing Fort Worth Center
Tue 06:26:43 PM 32.7336 -95.6586 91° East 353 406 32,600 768 Climbing Fort Worth Center
Tue 06:27:45 PM 32.7314 -95.5417 91° East 354 407 33,200 677 Climbing Fort Worth Center
Tue 06:28:47 PM 32.7283 -95.3981 91° East 362 417 34,000 726 Climbing Fort Worth Center
Tue 06:29:49 PM 32.7261 -95.2778 91° East 366 421 34,700 726 Climbing Fort Worth Center
Tue 06:30:51 PM 32.7228 -95.1736 92° East 366 421 35,500 726 Climbing Fort Worth Center
Tue 06:31:53 PM 32.7206 -95.0303 91° East 364 419 36,200 528 Climbing Fort Worth Center
Tue 06:32:56 PM 32.7169 -94.9106 92° East 364 419 36,600 384 Climbing Fort Worth Center
Tue 06:33:58 PM 32.7106 -94.7886 94° East 369 425 37,000 194 Climbing Fort Worth Center
Tue 06:35:00 PM 32.6697 -94.6675 112° Southeast 393 452 37,000  Level Fort Worth Center
Tue 06:36:02 PM 32.6264 -94.5408 112° Southeast 412 474 37,000  Level Fort Worth Center
Tue 06:37:04 PM 32.5739 -94.3875 112° Southeast 421 484 37,000  Level Fort Worth Center
Tue 06:38:06 PM 32.5306 -94.2581 112° Southeast 427 491 37,000  Level Fort Worth Center
Tue 06:39:08 PM 32.4858 -94.1294 112° Southeast 425 489 37,000  Level Fort Worth Center
Tue 06:40:10 PM 32.4419 -94.0006 112° Southeast 426 490 37,000  Level Fort Worth Center
Tue 06:41:12 PM 32.3961 -93.8733 113° Southeast 423 487 37,000  Level Fort Worth Center
Tue 06:42:14 PM 32.3417 -93.7167 112° Southeast 430 495 37,000  Level Fort Worth Center
Tue 06:43:16 PM 32.2969 -93.5867 112° Southeast 429 494 37,000  Level Fort Worth Center
Tue 06:44:19 PM 32.2511 -93.4581 113° Southeast 427 491 37,000 336 Level Fort Worth Center
Tue 06:45:21 PM 32.2061 -93.3297 112° Southeast 427 491 37,700 677 Climbing Fort Worth Center
Tue 06:46:23 PM 32.1619 -93.2069 113° Southeast 414 476 38,400 387 Climbing Fort Worth Center
Tue 06:47:25 PM 32.0914 -93.0867 125° Southeast 411 473 38,500 97 Climbing Fort Worth Center
Tue 06:48:27 PM 32.0178 -92.9792 129° Southeast 417 480 38,600 145 Climbing Fort Worth Center
Tue 06:49:29 PM 31.9425 -92.8692 129° Southeast 427 491 38,800 194 Climbing Fort Worth Center
Tue 06:50:31 PM 31.8653 -92.7581 129° Southeast 434 499 39,000 97 Climbing Fort Worth Center
Tue 06:51:33 PM 31.7717 -92.6242 129° Southeast 439 505 39,000  Level Fort Worth Center
Tue 06:52:47 PM 31.6850 -92.5047 130° Southeast 445 512 39,000  Level Houston Center
Tue 06:53:49 PM 31.5878 -92.3653 129° Southeast 456 525 39,000  Level Houston Center
Tue 06:54:51 PM 31.5056 -92.2492 130° Southeast 460 529 39,000  Level Houston Center
Tue 06:55:53 PM 31.4242 -92.1344 130° Southeast 457 526 39,000  Level Houston Center
Tue 06:56:55 PM 31.3464 -92.0253 130° Southeast 454 522 39,000  Level Houston Center
Tue 06:57:57 PM 31.2664 -91.9131 130° Southeast 449 517 39,000  Level Houston Center
Tue 06:58:58 PM 31.1878 -91.8014 129° Southeast 445 512 39,000  Level Houston Center
Tue 07:00:00 PM 31.0933 -91.6706 130° Southeast 440 506 39,000  Level Houston Center
Tue 07:01:02 PM 31.0144 -91.5606 130° Southeast 442 509 39,000  Level Houston Center
Tue 07:02:04 PM 30.9367 -91.4514 130° Southeast 438 504 39,000  Level Houston Center
Tue 07:03:06 PM 30.8581 -91.3439 130° Southeast 436 502 39,000  Level Houston Center
Tue 07:04:08 PM 30.7794 -91.2344 130° Southeast 440 506 39,000  Level Houston Center
Tue 07:05:10 PM 30.6953 -91.1175 130° Southeast 436 502 39,000  Level Houston Center
Tue 07:06:12 PM 30.6178 -91.0094 130° Southeast 435 501 39,000  Level Houston Center
Tue 07:07:14 PM 30.5403 -90.9025 130° Southeast 434 499 39,000  Level Houston Center
Tue 07:08:16 PM 30.4622 -90.7981 131° Southeast 432 497 39,000  Level Houston Center
Tue 07:09:18 PM 30.3714 -90.6681 129° Southeast 434 499 39,000  Level Houston Center
Tue 07:10:20 PM 30.3025 -90.5525 125° Southeast 437 503 39,000  Level Houston Center
Tue 07:11:22 PM 30.2331 -90.4381 125° Southeast 438 504 39,000  Level Houston Center
Tue 07:12:23 PM 30.1644 -90.3233 125° Southeast 437 503 39,000  Level Houston Center
Tue 07:13:25 PM 30.0958 -90.2092 125° Southeast 437 503 39,000  Level Houston Center
Tue 07:14:27 PM 30.0133 -90.0719 125° Southeast 438 504 39,000  Level Houston Center
Tue 07:15:29 PM 29.9456 -89.9578 124° Southeast 436 502 39,000  Level Houston Center
Tue 07:16:31 PM 29.8775 -89.8428 124° Southeast 438 504 39,000  Level Houston Center
Tue 07:17:33 PM 29.8097 -89.7283 124° Southeast 436 502 39,000  Level Houston Center
Tue 07:18:34 PM 29.7383 -89.6158 126° Southeast 436 502 39,000  Level Houston Center
Tue 07:19:36 PM 29.6508 -89.5231 137° Southeast 429 494 39,000  Level Houston Center
Tue 07:20:38 PM 29.5481 -89.4106 136° Southeast 427 491 39,000  Level Houston Center
Tue 07:21:40 PM 29.4619 -89.3178 137° Southeast 426 490 39,000  Level Houston Center
Tue 07:22:42 PM 29.3753 -89.2247 137° Southeast 428 493 39,000  Level Houston Center
Tue 07:23:43 PM 29.2883 -89.1314 137° Southeast 428 493 39,000  Level Houston Center
Tue 07:24:45 PM 29.2014 -89.0383 137° Southeast 428 493 39,000  Level Houston Center
Tue 07:25:47 PM 29.1150 -88.9461 137° Southeast 427 491 39,000  Level Houston Center
Tue 07:26:49 PM 29.0103 -88.8342 137° Southeast 429 494 39,000  Level Houston Center
Tue 07:27:50 PM 28.9231 -88.7419 137° Southeast 428 493 39,000  Level Houston Center
Tue 07:28:52 PM 28.8608 -88.6228 121° Southeast 448 516 39,000  Level Houston Center
Tue 07:29:54 PM 28.8250 -88.4847 106° East 453 521 39,000  Level Houston Center
Tue 07:30:56 PM 28.7858 -88.3469 108° East 456 525 39,000  Level Houston Center
Tue 07:31:57 PM 28.7478 -88.2094 107° East 456 525 39,000  Level Houston Center
Tue 07:32:59 PM 28.7044 -88.0542 108° East 454 522 39,000  Level Houston Center
Tue 07:34:01 PM 28.6647 -87.9172 108° East 456 525 39,000  Level Houston Center
Tue 07:35:03 PM 28.6269 -87.7792 107° East 457 526 39,000  Level Houston Center
Tue 07:36:04 PM 28.5881 -87.6431 108° East 454 522 39,000  Level Houston Center
Tue 07:37:06 PM 28.5483 -87.5072 108° East 455 524 39,000  Level Houston Center
Tue 07:38:08 PM 28.5014 -87.3439 108° East 453 521 39,000  Level Houston Center
Tue 07:39:10 PM 28.4628 -87.2081 108° East 455 524 39,000  Level Houston Center
Tue 07:40:11 PM 28.4233 -87.0711 108° East 456 525 39,000  Level Houston Center
Tue 07:41:13 PM 28.3839 -86.9367 108° East 453 521 39,000  Level Houston Center
Tue 07:42:15 PM 28.3442 -86.8003 108° East 455 524 39,000  Level Houston Center
Tue 07:43:16 PM 28.3047 -86.6644 108° East 455 524 39,000  Level Houston Center
Tue 07:44:09 PM 28.2656 -86.5286 108° East 452 520 39,000  Level Jacksonville Center
Tue 07:45:09 PM 28.2256 -86.3931 108° East 452 520 39,000  Level Jacksonville Center
Tue 07:46:10 PM 28.1853 -86.2575 109° East 452 520 39,000  Level Jacksonville Center
Tue 07:47:09 PM 28.1447 -86.1242 109° East 447 514 39,000  Level Jacksonville Center
Tue 07:48:09 PM 28.1022 -85.9864 109° East 447 514 39,000  Level Jacksonville Center
Tue 07:49:09 PM 28.0617 -85.8489 108° East 455 524 39,000  Level Jacksonville Center
Tue 07:50:57 PM 27.9933 -85.6206 109° East 454 522 39,000  Level Miami Center
Tue 07:51:57 PM 27.9517 -85.4858 109° East 454 522 39,000  Level Miami Center
Tue 07:52:57 PM 27.9139 -85.3517 108° East 454 522 39,000  Level Miami Center
Tue 07:53:57 PM 27.8758 -85.2175 108° East 454 522 39,000  Level Miami Center
Tue 07:54:57 PM 27.8358 -85.0811 108° East 454 522 39,000  Level Miami Center
Tue 07:55:57 PM 27.7847 -84.9556 115° Southeast 448 516 39,000  Level Miami Center
Tue 07:56:57 PM 27.7208 -84.8292 120° Southeast 448 516 39,000  Level Miami Center
Tue 07:57:57 PM 27.6672 -84.7036 116° Southeast 454 522 39,000  Level Miami Center
Tue 07:58:57 PM 27.6136 -84.5761 115° Southeast 454 522 39,000  Level Miami Center
Tue 07:59:57 PM 27.5581 -84.4483 116° Southeast 459 528 39,000  Level Miami Center
Tue 08:00:57 PM 27.5042 -84.3208 115° Southeast 459 528 39,000  Level Miami Center
Tue 08:01:57 PM 27.4483 -84.1908 116° Southeast 459 528 39,000  Level Miami Center
Tue 08:02:57 PM 27.3922 -84.0636 116° Southeast 459 528 39,000  Level Miami Center
Tue 08:03:57 PM 27.3358 -83.9364 116° Southeast 459 528 39,000 -350 Level Miami Center
Tue 08:04:57 PM 27.2775 -83.8067 117° Southeast 465 535 38,300 -1,750 Descending Miami Center
Tue 08:05:57 PM 27.2153 -83.6653 116° Southeast 475 547 35,500 -2,550 Descending Miami Center
Tue 08:06:57 PM 27.1531 -83.5264 117° Southeast 491 565 33,200 -2,550 Descending Miami Center
Tue 08:07:57 PM 27.0906 -83.3878 117° Southeast 496 571 30,400 -2,750 Descending Miami Center
Tue 08:08:57 PM 27.0319 -83.2517 116° Southeast 496 571 27,700 -2,600 Descending Miami Center
Tue 08:09:57 PM 26.9692 -83.1108 117° Southeast 496 571 25,200 -2,550 Descending Miami Center
Tue 08:10:57 PM 26.9100 -82.9819 117° Southeast 488 562 22,600 -2,400 Descending Miami Center
Tue 08:11:57 PM 26.8567 -82.8606 116° Southeast 457 526 20,400 -2,150 Descending Miami Center
Tue 08:12:57 PM 26.8069 -82.7533 117° Southeast 417 480 18,300 -2,150 Descending Miami Center
Tue 08:13:57 PM 26.7592 -82.6439 116° Southeast 401 461 16,100 -2,250 Descending Miami Center
Tue 08:14:57 PM 26.7033 -82.5228 117° Southeast 396 456 13,800 -2,100 Descending Miami Center
Tue 08:15:57 PM 26.6486 -82.4247 122° Southeast 385 443 11,900 -1,900 Descending Miami Center
Tue 08:16:57 PM 26.5936 -82.3339 124° Southeast 366 421 10,000 -1,900 Descending Miami Center
Tue 08:17:57 PM 26.5406 -82.2503 125° Southeast 346 398 8,100 -1,900 Descending Miami Center
Tue 08:18:57 PM 26.4869 -82.1714 127° Southeast 329 379 6,200 -1,300 Descending Miami Center
Tue 08:19:57 PM 26.4356 -82.0947 127° Southeast 318 366 5,500 -600 Descending Miami Center
Tue 08:20:57 PM 26.3919 -82.0281 126° Southeast 302 348 5,000 -250 Descending Miami Center
Tue 08:21:57 PM 26.3425 -81.9539 127° Southeast 302 348 5,000 -400 Level Miami Center
Tue 08:22:57 PM 26.2967 -81.8847 126° Southeast 295 339 4,200 -800 Descending Miami Center
Tue 08:24:00 PM 26.1969 -81.8077 142° Southeast  Level FlightAware Approximate
Tue 08:31:00 PM 26.1500 -81.7667 142° Southeast  Level FlightAware Approximate
Tue 08:32:00 PM 26.1524 -81.7756 142° Southeast  Level Estimated
Tue 08:33:00 PM 26.1524 -81.7756 142° Southeast  Level Estimated
Tue 08:34:00 PM 26.1524 -81.7756 142° Southeast  Level Estimated
Tue 08:35:00 PM 26.1524 -81.7756 142° Southeast  Level Estimated

Login

Don't have an account? Register now (free) for customized features, flight alerts, and more!